sensor_id;sensor_type;location;lat;lon;timestamp;pressure;altitude;pressure_sealevel;temperature;humidity
40315;BME280;26021;45.640;11.302;2023-01-30T00:00:58;99348.09;;;-0.01;100.00
40315;BME280;26021;45.640;11.302;2023-01-30T00:03:25;99280.50;;;-0.40;100.00
40315;BME280;26021;45.640;11.302;2023-01-30T00:05:51;99239.91;;;-0.77;100.00
40315;BME280;26021;45.640;11.302;2023-01-30T00:08:17;99351.50;;;0.02;100.00
40315;BME280;26021;45.640;11.302;2023-01-30T00:10:43;99338.34;;;-0.13;100.00
40315;BME280;26021;45.640;11.302;2023-01-30T00:13:09;99289.78;;;-0.34;100.00
40315;BME280;26021;45.640;11.302;2023-01-30T00:15:35;99309.31;;;-0.38;100.00
40315;BME280;26021;45.640;11.302;2023-01-30T00:18:00;99340.53;;;-0.19;100.00
40315;BME280;26021;45.640;11.302;2023-01-30T00:20:26;99325.91;;;-0.38;100.00
40315;BME280;26021;45.640;11.302;2023-01-30T00:22:51;99329.97;;;-0.05;100.00
40315;BME280;26021;45.640;11.302;2023-01-30T00:25:16;99331.22;;;-0.11;100.00
40315;BME280;26021;45.640;11.302;2023-01-30T00:27:42;99323.50;;;0.01;100.00
40315;BME280;26021;45.640;11.302;2023-01-30T00:30:08;99307.78;;;-0.01;100.00
40315;BME280;26021;45.640;11.302;2023-01-30T00:32:33;99314.19;;;-0.05;100.00
40315;BME280;26021;45.640;11.302;2023-01-30T00:34:59;99297.47;;;-0.31;100.00
40315;BME280;26021;45.640;11.302;2023-01-30T00:37:25;99311.47;;;-0.04;100.00
40315;BME280;26021;45.640;11.302;2023-01-30T00:39:50;99310.19;;;-0.11;100.00
40315;BME280;26021;45.640;11.302;2023-01-30T00:42:16;99310.47;;;-0.15;100.00
40315;BME280;26021;45.640;11.302;2023-01-30T00:45:00;99315.09;;;-0.19;100.00
40315;BME280;26021;45.640;11.302;2023-01-30T00:47:44;99266.38;;;-0.24;100.00
40315;BME280;26021;45.640;11.302;2023-01-30T00:50:10;99290.84;;;-0.10;100.00
40315;BME280;26021;45.640;11.302;2023-01-30T00:52:35;99319.56;;;-0.07;100.00
40315;BME280;26021;45.640;11.302;2023-01-30T00:55:01;99312.41;;;-0.05;100.00
40315;BME280;26021;45.640;11.302;2023-01-30T00:57:26;99305.31;;;-0.17;100.00
40315;BME280;26021;45.640;11.302;2023-01-30T00:59:52;99305.22;;;-0.15;100.00
40315;BME280;26021;45.640;11.302;2023-01-30T01:02:17;99159.59;;;-1.08;100.00
40315;BME280;26021;45.640;11.302;2023-01-30T01:04:43;99300.09;;;-0.31;100.00
40315;BME280;26021;45.640;11.302;2023-01-30T01:07:09;99294.41;;;-0.11;100.00
40315;BME280;26021;45.640;11.302;2023-01-30T01:09:35;99294.75;;;-0.29;100.00
40315;BME280;26021;45.640;11.302;2023-01-30T01:12:01;99299.00;;;-0.14;100.00
40315;BME280;26021;45.640;11.302;2023-01-30T01:14:26;99297.44;;;-0.17;100.00
40315;BME280;26021;45.640;11.302;2023-01-30T01:16:52;99296.78;;;-0.20;100.00
40315;BME280;26021;45.640;11.302;2023-01-30T01:19:17;99288.00;;;-0.34;100.00
40315;BME280;26021;45.640;11.302;2023-01-30T01:21:43;99259.53;;;-0.68;100.00
40315;BME280;26021;45.640;11.302;2023-01-30T01:24:12;99294.31;;;-0.50;100.00
40315;BME280;26021;45.640;11.302;2023-01-30T01:26:38;99281.78;;;-0.33;100.00
40315;BME280;26021;45.640;11.302;2023-01-30T01:29:04;99279.38;;;-0.36;100.00
40315;BME280;26021;45.640;11.302;2023-01-30T01:31:29;99277.53;;;-0.62;100.00
40315;BME280;26021;45.640;11.302;2023-01-30T01:33:55;99271.94;;;-0.29;100.00
40315;BME280;26021;45.640;11.302;2023-01-30T01:36:21;99268.31;;;-0.41;100.00
40315;BME280;26021;45.640;11.302;2023-01-30T01:38:47;99212.81;;;-0.77;100.00
40315;BME280;26021;45.640;11.302;2023-01-30T01:41:16;99257.53;;;-0.50;100.00
40315;BME280;26021;45.640;11.302;2023-01-30T01:44:08;99202.56;;;-0.53;100.00
40315;BME280;26021;45.640;11.302;2023-01-30T01:46:37;99248.81;;;-0.24;100.00
40315;BME280;26021;45.640;11.302;2023-01-30T01:49:21;99257.16;;;-0.17;100.00
40315;BME280;26021;45.640;11.302;2023-01-30T01:57:09;99234.41;;;-0.72;100.00
40315;BME280;26021;45.640;11.302;2023-01-30T01:59:43;99245.19;;;-0.62;100.00
40315;BME280;26021;45.640;11.302;2023-01-30T02:02:11;99248.66;;;-0.62;100.00
40315;BME280;26021;45.640;11.302;2023-01-30T02:04:41;99247.03;;;-0.50;100.00
40315;BME280;26021;45.640;11.302;2023-01-30T02:07:35;99241.81;;;-0.38;100.00
40315;BME280;26021;45.640;11.302;2023-01-30T02:10:03;99239.63;;;-0.31;100.00
40315;BME280;26021;45.640;11.302;2023-01-30T02:12:30;99242.66;;;-0.37;100.00
40315;BME280;26021;45.640;11.302;2023-01-30T02:14:56;99040.63;;;-1.49;100.00
40315;BME280;26021;45.640;11.302;2023-01-30T02:17:22;99062.19;;;-1.44;100.00
40315;BME280;26021;45.640;11.302;2023-01-30T02:20:05;99234.63;;;-0.48;100.00
40315;BME280;26021;45.640;11.302;2023-01-30T02:33:31;99214.41;;;-0.60;100.00
40315;BME280;26021;45.640;11.302;2023-01-30T02:36:15;99222.72;;;-0.54;100.00
40315;BME280;26021;45.640;11.302;2023-01-30T02:44:05;99217.13;;;-0.62;100.00
40315;BME280;26021;45.640;11.302;2023-01-30T02:46:49;99206.81;;;-0.65;100.00
40315;BME280;26021;45.640;11.302;2023-01-30T02:49:28;99212.31;;;-0.55;100.00
40315;BME280;26021;45.640;11.302;2023-01-30T02:52:14;99212.03;;;-0.51;100.00
40315;BME280;26021;45.640;11.302;2023-01-30T02:54:40;99193.88;;;-0.68;100.00
40315;BME280;26021;45.640;11.302;2023-01-30T02:57:23;99200.06;;;-0.69;100.00
40315;BME280;26021;45.640;11.302;2023-01-30T02:59:56;99201.28;;;-0.75;100.00
40315;BME280;26021;45.640;11.302;2023-01-30T03:11:03;99190.75;;;-0.75;100.00
40315;BME280;26021;45.640;11.302;2023-01-30T03:14:08;99181.72;;;-0.56;100.00
40315;BME280;26021;45.640;11.302;2023-01-30T03:16:38;99179.81;;;-0.81;100.00
40315;BME280;26021;45.640;11.302;2023-01-30T03:19:05;99180.66;;;-0.81;100.00
40315;BME280;26021;45.640;11.302;2023-01-30T03:21:39;99178.75;;;-0.65;100.00
40315;BME280;26021;45.640;11.302;2023-01-30T03:24:05;99160.03;;;-0.73;100.00
40315;BME280;26021;45.640;11.302;2023-01-30T03:26:33;99166.81;;;-0.97;100.00
40315;BME280;26021;45.640;11.302;2023-01-30T03:29:01;99165.47;;;-0.90;100.00
40315;BME280;26021;45.640;11.302;2023-01-30T03:31:27;99158.34;;;-0.88;100.00
40315;BME280;26021;45.640;11.302;2023-01-30T03:33:52;99162.16;;;-0.79;100.00
40315;BME280;26021;45.640;11.302;2023-01-30T03:36:17;99049.34;;;-1.49;100.00
40315;BME280;26021;45.640;11.302;2023-01-30T03:38:43;99126.63;;;-0.85;100.00
40315;BME280;26021;45.640;11.302;2023-01-30T03:41:08;99157.94;;;-0.68;100.00
40315;BME280;26021;45.640;11.302;2023-01-30T03:43:34;99155.31;;;-0.82;100.00
40315;BME280;26021;45.640;11.302;2023-01-30T03:45:59;99153.69;;;-0.97;100.00
40315;BME280;26021;45.640;11.302;2023-01-30T03:48:25;99094.41;;;-1.28;100.00
40315;BME280;26021;45.640;11.302;2023-01-30T03:50:50;99149.41;;;-1.12;100.00
40315;BME280;26021;45.640;11.302;2023-01-30T03:53:16;99145.13;;;-0.86;100.00
40315;BME280;26021;45.640;11.302;2023-01-30T03:55:43;99140.31;;;-0.80;100.00
40315;BME280;26021;45.640;11.302;2023-01-30T03:58:08;99146.03;;;-0.73;100.00
40315;BME280;26021;45.640;11.302;2023-01-30T04:00:34;99143.66;;;-0.63;100.00
40315;BME280;26021;45.640;11.302;2023-01-30T04:02:59;99139.66;;;-0.83;100.00
40315;BME280;26021;45.640;11.302;2023-01-30T04:05:25;99134.25;;;-0.94;100.00
40315;BME280;26021;45.640;11.302;2023-01-30T04:07:50;99125.69;;;-0.84;100.00
40315;BME280;26021;45.640;11.302;2023-01-30T04:10:16;99126.72;;;-0.86;100.00
40315;BME280;26021;45.640;11.302;2023-01-30T04:12:44;99124.19;;;-0.74;100.00
40315;BME280;26021;45.640;11.302;2023-01-30T04:15:10;99102.66;;;-0.93;100.00
40315;BME280;26021;45.640;11.302;2023-01-30T04:17:36;99118.53;;;-0.68;100.00
40315;BME280;26021;45.640;11.302;2023-01-30T04:20:02;99024.16;;;-1.37;100.00
40315;BME280;26021;45.640;11.302;2023-01-30T04:22:28;99121.25;;;-0.69;100.00
40315;BME280;26021;45.640;11.302;2023-01-30T04:24:53;99127.19;;;-0.80;100.00
40315;BME280;26021;45.640;11.302;2023-01-30T04:27:19;99125.75;;;-0.98;100.00
40315;BME280;26021;45.640;11.302;2023-01-30T04:29:44;99068.28;;;-1.44;100.00
40315;BME280;26021;45.640;11.302;2023-01-30T04:32:10;99118.38;;;-1.20;100.00
40315;BME280;26021;45.640;11.302;2023-01-30T04:34:35;99104.41;;;-1.20;100.00
40315;BME280;26021;45.640;11.302;2023-01-30T04:37:00;99108.00;;;-0.94;100.00
40315;BME280;26021;45.640;11.302;2023-01-30T04:39:26;99099.94;;;-0.91;100.00
40315;BME280;26021;45.640;11.302;2023-01-30T04:41:51;99029.44;;;-1.24;100.00
40315;BME280;26021;45.640;11.302;2023-01-30T04:44:17;99058.41;;;-1.26;100.00
40315;BME280;26021;45.640;11.302;2023-01-30T04:46:42;99081.75;;;-1.21;100.00
40315;BME280;26021;45.640;11.302;2023-01-30T04:49:11;99079.66;;;-0.89;100.00
40315;BME280;26021;45.640;11.302;2023-01-30T04:51:36;99068.44;;;-0.91;100.00
40315;BME280;26021;45.640;11.302;2023-01-30T04:54:02;99070.25;;;-1.06;100.00
40315;BME280;26021;45.640;11.302;2023-01-30T04:56:27;99070.59;;;-0.98;100.00
40315;BME280;26021;45.640;11.302;2023-01-30T04:58:53;99061.69;;;-0.96;100.00
40315;BME280;26021;45.640;11.302;2023-01-30T05:01:33;99062.44;;;-0.93;100.00
40315;BME280;26021;45.640;11.302;2023-01-30T05:03:59;98977.31;;;-1.57;100.00
40315;BME280;26021;45.640;11.302;2023-01-30T05:06:26;99059.94;;;-1.09;100.00
40315;BME280;26021;45.640;11.302;2023-01-30T05:08:53;99057.03;;;-1.05;100.00
40315;BME280;26021;45.640;11.302;2023-01-30T05:11:20;99068.53;;;-1.20;100.00
40315;BME280;26021;45.640;11.302;2023-01-30T05:13:46;98971.81;;;-1.67;100.00
40315;BME280;26021;45.640;11.302;2023-01-30T05:16:12;99055.66;;;-1.10;100.00
40315;BME280;26021;45.640;11.302;2023-01-30T05:18:38;99051.00;;;-0.92;100.00
40315;BME280;26021;45.640;11.302;2023-01-30T05:21:08;99063.41;;;-1.09;100.00
40315;BME280;26021;45.640;11.302;2023-01-30T05:23:34;99043.13;;;-1.19;100.00
40315;BME280;26021;45.640;11.302;2023-01-30T05:26:00;99017.41;;;-1.41;100.00
40315;BME280;26021;45.640;11.302;2023-01-30T05:28:26;99062.88;;;-1.14;100.00
40315;BME280;26021;45.640;11.302;2023-01-30T05:30:52;99060.75;;;-1.21;100.00
40315;BME280;26021;45.640;11.302;2023-01-30T05:33:17;99052.03;;;-1.22;100.00
40315;BME280;26021;45.640;11.302;2023-01-30T05:35:47;99004.19;;;-1.54;100.00
40315;BME280;26021;45.640;11.302;2023-01-30T05:38:13;99066.00;;;-1.21;100.00
40315;BME280;26021;45.640;11.302;2023-01-30T05:40:38;99050.25;;;-1.21;100.00
40315;BME280;26021;45.640;11.302;2023-01-30T05:43:04;99069.41;;;-1.34;100.00
40315;BME280;26021;45.640;11.302;2023-01-30T05:45:29;99077.66;;;-1.40;100.00
40315;BME280;26021;45.640;11.302;2023-01-30T05:47:54;99087.19;;;-1.24;100.00
40315;BME280;26021;45.640;11.302;2023-01-30T05:50:20;99083.03;;;-1.14;100.00
40315;BME280;26021;45.640;11.302;2023-01-30T05:52:46;99086.28;;;-1.38;100.00
40315;BME280;26021;45.640;11.302;2023-01-30T05:55:11;99084.91;;;-1.16;100.00
40315;BME280;26021;45.640;11.302;2023-01-30T05:57:37;99076.63;;;-1.37;100.00
40315;BME280;26021;45.640;11.302;2023-01-30T06:00:03;99077.81;;;-1.29;100.00
40315;BME280;26021;45.640;11.302;2023-01-30T06:02:29;99072.22;;;-1.37;100.00
40315;BME280;26021;45.640;11.302;2023-01-30T06:04:55;99075.41;;;-1.05;100.00
40315;BME280;26021;45.640;11.302;2023-01-30T06:07:21;99073.78;;;-0.93;100.00
40315;BME280;26021;45.640;11.302;2023-01-30T06:09:46;99063.66;;;-0.99;100.00
40315;BME280;26021;45.640;11.302;2023-01-30T06:12:12;99071.13;;;-1.20;100.00
40315;BME280;26021;45.640;11.302;2023-01-30T06:14:37;99082.25;;;-1.02;100.00
40315;BME280;26021;45.640;11.302;2023-01-30T06:17:03;99059.06;;;-0.96;100.00
40315;BME280;26021;45.640;11.302;2023-01-30T06:19:28;98991.56;;;-1.47;100.00
40315;BME280;26021;45.640;11.302;2023-01-30T06:21:54;99063.41;;;-1.09;100.00
40315;BME280;26021;45.640;11.302;2023-01-30T06:24:19;99066.78;;;-1.34;100.00
40315;BME280;26021;45.640;11.302;2023-01-30T06:26:45;99036.22;;;-1.35;100.00
40315;BME280;26021;45.640;11.302;2023-01-30T06:29:10;99078.72;;;-1.15;100.00
40315;BME280;26021;45.640;11.302;2023-01-30T06:31:36;99077.69;;;-1.13;100.00
40315;BME280;26021;45.640;11.302;2023-01-30T06:34:01;99078.78;;;-1.03;100.00
40315;BME280;26021;45.640;11.302;2023-01-30T06:36:26;99044.59;;;-1.42;100.00
40315;BME280;26021;45.640;11.302;2023-01-30T06:38:52;99076.28;;;-1.18;100.00
40315;BME280;26021;45.640;11.302;2023-01-30T06:41:18;99081.78;;;-1.09;100.00
40315;BME280;26021;45.640;11.302;2023-01-30T06:43:44;99077.44;;;-0.96;100.00
40315;BME280;26021;45.640;11.302;2023-01-30T06:46:09;99087.53;;;-0.89;100.00
40315;BME280;26021;45.640;11.302;2023-01-30T06:48:34;99089.31;;;-0.90;100.00
40315;BME280;26021;45.640;11.302;2023-01-30T06:51:00;99101.47;;;-0.75;100.00
40315;BME280;26021;45.640;11.302;2023-01-30T06:53:25;99107.28;;;-0.70;100.00
40315;BME280;26021;45.640;11.302;2023-01-30T06:55:56;99093.34;;;-0.84;100.00
40315;BME280;26021;45.640;11.302;2023-01-30T06:58:21;99092.31;;;-0.82;100.00
40315;BME280;26021;45.640;11.302;2023-01-30T07:00:47;99080.50;;;-0.89;100.00
40315;BME280;26021;45.640;11.302;2023-01-30T07:03:15;99082.41;;;-0.91;100.00
40315;BME280;26021;45.640;11.302;2023-01-30T07:05:42;99078.53;;;-0.85;100.00
40315;BME280;26021;45.640;11.302;2023-01-30T07:08:08;98959.53;;;-1.25;100.00
40315;BME280;26021;45.640;11.302;2023-01-30T07:10:34;99063.00;;;-0.49;100.00
40315;BME280;26021;45.640;11.302;2023-01-30T07:13:00;99048.41;;;-0.40;100.00
40315;BME280;26021;45.640;11.302;2023-01-30T07:15:26;99050.19;;;-0.41;100.00
40315;BME280;26021;45.640;11.302;2023-01-30T07:17:51;99060.72;;;-0.15;100.00
40315;BME280;26021;45.640;11.302;2023-01-30T07:20:16;99055.16;;;-0.11;100.00
40315;BME280;26021;45.640;11.302;2023-01-30T07:22:54;99065.97;;;-0.03;100.00
40315;BME280;26021;45.640;11.302;2023-01-30T07:25:21;99046.72;;;-0.03;100.00
40315;BME280;26021;45.640;11.302;2023-01-30T07:27:55;99069.56;;;-0.04;100.00
40315;BME280;26021;45.640;11.302;2023-01-30T07:30:21;99064.00;;;0.14;100.00
40315;BME280;26021;45.640;11.302;2023-01-30T07:32:51;99066.53;;;0.15;100.00
40315;BME280;26021;45.640;11.302;2023-01-30T07:35:16;99055.50;;;0.10;100.00
40315;BME280;26021;45.640;11.302;2023-01-30T07:37:44;99054.66;;;0.10;100.00
40315;BME280;26021;45.640;11.302;2023-01-30T07:40:10;99048.84;;;0.17;100.00
40315;BME280;26021;45.640;11.302;2023-01-30T07:42:36;99059.31;;;0.55;100.00
40315;BME280;26021;45.640;11.302;2023-01-30T07:45:02;99020.56;;;0.08;100.00
40315;BME280;26021;45.640;11.302;2023-01-30T07:47:27;99077.75;;;0.43;100.00
40315;BME280;26021;45.640;11.302;2023-01-30T07:49:52;99082.63;;;0.23;100.00
40315;BME280;26021;45.640;11.302;2023-01-30T07:52:18;99038.75;;;-0.14;100.00
40315;BME280;26021;45.640;11.302;2023-01-30T07:54:43;99090.19;;;0.41;100.00
40315;BME280;26021;45.640;11.302;2023-01-30T07:57:10;99074.63;;;0.38;100.00
40315;BME280;26021;45.640;11.302;2023-01-30T07:59:35;99083.25;;;0.40;100.00
40315;BME280;26021;45.640;11.302;2023-01-30T08:02:00;99048.84;;;0.30;100.00
40315;BME280;26021;45.640;11.302;2023-01-30T08:04:26;99062.50;;;0.48;100.00
40315;BME280;26021;45.640;11.302;2023-01-30T08:06:51;99057.41;;;0.57;100.00
40315;BME280;26021;45.640;11.302;2023-01-30T08:09:17;99057.84;;;0.51;100.00
40315;BME280;26021;45.640;11.302;2023-01-30T08:11:42;99048.34;;;0.61;100.00
40315;BME280;26021;45.640;11.302;2023-01-30T08:14:07;99031.16;;;0.81;100.00
40315;BME280;26021;45.640;11.302;2023-01-30T08:16:33;99013.00;;;1.13;100.00
40315;BME280;26021;45.640;11.302;2023-01-30T08:18:58;99020.94;;;1.24;100.00
40315;BME280;26021;45.640;11.302;2023-01-30T08:21:24;99016.34;;;1.15;100.00
40315;BME280;26021;45.640;11.302;2023-01-30T08:23:50;99018.16;;;0.91;100.00
40315;BME280;26021;45.640;11.302;2023-01-30T08:26:15;99000.16;;;0.85;100.00
40315;BME280;26021;45.640;11.302;2023-01-30T08:28:41;99013.97;;;1.23;100.00
40315;BME280;26021;45.640;11.302;2023-01-30T08:31:11;98980.41;;;0.79;100.00
40315;BME280;26021;45.640;11.302;2023-01-30T08:33:37;99012.22;;;0.76;100.00
40315;BME280;26021;45.640;11.302;2023-01-30T08:36:03;99022.25;;;0.95;100.00
40315;BME280;26021;45.640;11.302;2023-01-30T08:38:29;99044.53;;;1.02;100.00
40315;BME280;26021;45.640;11.302;2023-01-30T08:40:54;98986.50;;;0.80;100.00
40315;BME280;26021;45.640;11.302;2023-01-30T08:43:22;99022.41;;;1.05;100.00
40315;BME280;26021;45.640;11.302;2023-01-30T08:45:47;99020.78;;;1.15;100.00
40315;BME280;26021;45.640;11.302;2023-01-30T08:48:13;99030.41;;;1.27;100.00
40315;BME280;26021;45.640;11.302;2023-01-30T08:50:38;98727.53;;;-0.48;100.00
40315;BME280;26021;45.640;11.302;2023-01-30T08:53:05;99025.41;;;1.35;100.00
40315;BME280;26021;45.640;11.302;2023-01-30T08:55:31;99034.38;;;1.68;100.00
40315;BME280;26021;45.640;11.302;2023-01-30T08:57:57;99033.56;;;1.67;100.00
40315;BME280;26021;45.640;11.302;2023-01-30T09:00:22;99024.72;;;1.90;100.00
40315;BME280;26021;45.640;11.302;2023-01-30T09:02:52;99015.22;;;1.77;100.00
40315;BME280;26021;45.640;11.302;2023-01-30T09:05:17;99009.88;;;2.12;100.00
40315;BME280;26021;45.640;11.302;2023-01-30T09:07:43;99000.88;;;2.37;100.00
40315;BME280;26021;45.640;11.302;2023-01-30T09:10:08;99017.31;;;2.51;100.00
40315;BME280;26021;45.640;11.302;2023-01-30T09:12:34;99007.91;;;2.70;100.00
40315;BME280;26021;45.640;11.302;2023-01-30T09:14:59;98822.25;;;1.72;100.00
40315;BME280;26021;45.640;11.302;2023-01-30T09:17:25;99016.84;;;3.01;100.00
40315;BME280;26021;45.640;11.302;2023-01-30T09:19:50;99016.56;;;3.15;100.00
40315;BME280;26021;45.640;11.302;2023-01-30T09:22:16;99001.47;;;2.95;100.00
40315;BME280;26021;45.640;11.302;2023-01-30T09:24:42;98996.22;;;3.27;100.00
40315;BME280;26021;45.640;11.302;2023-01-30T09:27:07;98985.72;;;3.36;100.00
40315;BME280;26021;45.640;11.302;2023-01-30T09:29:33;99001.31;;;3.60;100.00
40315;BME280;26021;45.640;11.302;2023-01-30T09:31:59;98941.84;;;3.13;100.00
40315;BME280;26021;45.640;11.302;2023-01-30T09:34:25;98988.88;;;3.93;100.00
40315;BME280;26021;45.640;11.302;2023-01-30T09:36:57;98982.75;;;3.92;94.99
40315;BME280;26021;45.640;11.302;2023-01-30T09:39:27;98952.78;;;4.22;98.17
40315;BME280;26021;45.640;11.302;2023-01-30T09:55:27;98960.69;;;3.82;100.00
40315;BME280;26021;45.640;11.302;2023-01-30T09:57:58;98968.84;;;4.00;100.00
40315;BME280;26021;45.640;11.302;2023-01-30T10:00:40;98961.56;;;4.23;100.00
40315;BME280;26021;45.640;11.302;2023-01-30T10:03:10;98958.22;;;4.21;100.00
40315;BME280;26021;45.640;11.302;2023-01-30T10:06:09;98955.69;;;4.19;100.00
40315;BME280;26021;45.640;11.302;2023-01-30T10:09:37;98946.66;;;3.91;100.00
40315;BME280;26021;45.640;11.302;2023-01-30T10:12:09;98944.25;;;3.78;100.00
40315;BME280;26021;45.640;11.302;2023-01-30T10:25:32;98872.00;;;3.57;100.00
40315;BME280;26021;45.640;11.302;2023-01-30T10:31:15;98872.19;;;3.96;100.00
40315;BME280;26021;45.640;11.302;2023-01-30T10:34:02;98883.78;;;4.14;100.00
40315;BME280;26021;45.640;11.302;2023-01-30T10:36:52;98877.25;;;4.28;100.00
40315;BME280;26021;45.640;11.302;2023-01-30T10:39:37;98879.09;;;4.37;100.00
40315;BME280;26021;45.640;11.302;2023-01-30T10:42:12;98873.09;;;4.35;100.00
40315;BME280;26021;45.640;11.302;2023-01-30T10:44:40;98866.13;;;4.43;100.00
40315;BME280;26021;45.640;11.302;2023-01-30T10:49:51;98847.09;;;4.69;100.00
40315;BME280;26021;45.640;11.302;2023-01-30T11:00:23;98834.41;;;4.72;100.00
40315;BME280;26021;45.640;11.302;2023-01-30T11:05:37;98778.06;;;4.70;100.00
40315;BME280;26021;45.640;11.302;2023-01-30T11:08:17;98697.09;;;4.20;100.00
40315;BME280;26021;45.640;11.302;2023-01-30T11:10:42;98633.34;;;3.84;100.00
40315;BME280;26021;45.640;11.302;2023-01-30T11:13:22;98794.75;;;5.00;100.00
40315;BME280;26021;45.640;11.302;2023-01-30T11:15:53;98771.94;;;4.70;100.00
40315;BME280;26021;45.640;11.302;2023-01-30T11:18:20;98762.16;;;4.70;100.00
40315;BME280;26021;45.640;11.302;2023-01-30T11:25:54;98807.00;;;5.10;100.00
40315;BME280;26021;45.640;11.302;2023-01-30T11:28:20;98800.00;;;5.29;100.00
40315;BME280;26021;45.640;11.302;2023-01-30T11:30:55;98784.09;;;5.56;100.00
40315;BME280;26021;45.640;11.302;2023-01-30T11:33:30;98592.69;;;4.41;99.43
40315;BME280;26021;45.640;11.302;2023-01-30T11:35:58;98764.78;;;5.36;100.00
40315;BME280;26021;45.640;11.302;2023-01-30T11:38:27;98764.84;;;5.27;100.00
40315;BME280;26021;45.640;11.302;2023-01-30T11:41:18;98760.88;;;5.40;100.00
40315;BME280;26021;45.640;11.302;2023-01-30T11:43:45;98765.97;;;5.52;100.00
40315;BME280;26021;45.640;11.302;2023-01-30T11:46:14;98771.56;;;5.49;100.00
40315;BME280;26021;45.640;11.302;2023-01-30T11:48:48;98764.84;;;5.54;100.00
40315;BME280;26021;45.640;11.302;2023-01-30T11:51:14;98754.53;;;5.51;100.00
40315;BME280;26021;45.640;11.302;2023-01-30T11:53:48;98706.78;;;5.24;99.95
40315;BME280;26021;45.640;11.302;2023-01-30T11:56:20;98747.56;;;5.50;99.68
40315;BME280;26021;45.640;11.302;2023-01-30T11:58:57;98705.75;;;5.34;100.00
40315;BME280;26021;45.640;11.302;2023-01-30T12:01:28;98587.94;;;4.55;100.00
40315;BME280;26021;45.640;11.302;2023-01-30T12:03:55;98713.59;;;5.54;100.00
40315;BME280;26021;45.640;11.302;2023-01-30T12:06:24;98705.75;;;5.62;99.58
40315;BME280;26021;45.640;11.302;2023-01-30T12:08:54;98691.25;;;5.56;100.00
40315;BME280;26021;45.640;11.302;2023-01-30T12:11:45;98706.75;;;5.33;100.00
40315;BME280;26021;45.640;11.302;2023-01-30T12:14:20;98701.88;;;5.56;100.00
40315;BME280;26021;45.640;11.302;2023-01-30T12:16:57;98688.38;;;5.22;100.00
40315;BME280;26021;45.640;11.302;2023-01-30T12:19:48;98699.13;;;5.48;100.00
40315;BME280;26021;45.640;11.302;2023-01-30T12:22:30;98689.06;;;5.69;100.00
40315;BME280;26021;45.640;11.302;2023-01-30T12:25:10;98685.19;;;5.91;97.54
40315;BME280;26021;45.640;11.302;2023-01-30T12:27:58;98692.94;;;6.02;96.69
40315;BME280;26021;45.640;11.302;2023-01-30T12:32:58;98689.00;;;6.07;95.22
40315;BME280;26021;45.640;11.302;2023-01-30T12:35:30;98669.06;;;6.02;94.99
40315;BME280;26021;45.640;11.302;2023-01-30T12:38:01;98642.16;;;6.23;95.17
40315;BME280;26021;45.640;11.302;2023-01-30T12:43:27;98667.59;;;6.26;96.25
40315;BME280;26021;45.640;11.302;2023-01-30T12:46:36;98615.09;;;6.20;94.22
40315;BME280;26021;45.640;11.302;2023-01-30T12:58:25;98665.81;;;6.34;95.39
40315;BME280;26021;45.640;11.302;2023-01-30T13:01:15;98638.75;;;6.57;92.61
40315;BME280;26021;45.640;11.302;2023-01-30T13:07:13;98557.66;;;6.19;94.13
40315;BME280;26021;45.640;11.302;2023-01-30T13:14:56;98600.56;;;6.32;95.51
40315;BME280;26021;45.640;11.302;2023-01-30T13:20:18;98595.09;;;6.33;92.48
40315;BME280;26021;45.640;11.302;2023-01-30T13:23:03;98622.28;;;6.53;92.92
40315;BME280;26021;45.640;11.302;2023-01-30T13:28:37;98592.44;;;6.08;95.34
40315;BME280;26021;45.640;11.302;2023-01-30T13:31:09;98615.81;;;6.30;95.41
40315;BME280;26021;45.640;11.302;2023-01-30T13:33:41;98494.84;;;5.66;95.99
40315;BME280;26021;45.640;11.302;2023-01-30T13:36:21;98596.97;;;6.41;95.44
40315;BME280;26021;45.640;11.302;2023-01-30T13:38:57;98603.28;;;6.40;93.95
40315;BME280;26021;45.640;11.302;2023-01-30T13:41:24;98587.53;;;6.21;95.98
40315;BME280;26021;45.640;11.302;2023-01-30T13:43:53;98569.38;;;6.34;95.11
40315;BME280;26021;45.640;11.302;2023-01-30T13:46:25;98582.44;;;6.27;94.94
40315;BME280;26021;45.640;11.302;2023-01-30T13:49:25;98574.16;;;6.30;94.05
40315;BME280;26021;45.640;11.302;2023-01-30T13:52:08;98377.19;;;5.05;94.76
40315;BME280;26021;45.640;11.302;2023-01-30T13:54:42;98569.72;;;6.39;93.59
40315;BME280;26021;45.640;11.302;2023-01-30T13:57:22;98523.44;;;6.16;93.79
40315;BME280;26021;45.640;11.302;2023-01-30T14:10:44;98570.94;;;6.45;91.79
40315;BME280;26021;45.640;11.302;2023-01-30T14:13:12;98566.59;;;6.44;92.55
40315;BME280;26021;45.640;11.302;2023-01-30T14:15:41;98563.75;;;6.37;93.56
40315;BME280;26021;45.640;11.302;2023-01-30T14:18:21;98563.34;;;6.24;92.00
40315;BME280;26021;45.640;11.302;2023-01-30T14:20:50;98548.19;;;6.16;94.05
40315;BME280;26021;45.640;11.302;2023-01-30T14:23:32;98526.94;;;6.16;93.96
40315;BME280;26021;45.640;11.302;2023-01-30T14:25:58;98548.06;;;6.26;93.48
40315;BME280;26021;45.640;11.302;2023-01-30T14:30:51;98541.63;;;6.02;95.02
40315;BME280;26021;45.640;11.302;2023-01-30T14:35:46;98551.31;;;5.94;98.41
40315;BME280;26021;45.640;11.302;2023-01-30T14:38:18;98548.53;;;5.95;98.50
40315;BME280;26021;45.640;11.302;2023-01-30T14:48:50;98557.84;;;5.64;100.00
40315;BME280;26021;45.640;11.302;2023-01-30T15:07:27;98573.38;;;5.23;100.00
40315;BME280;26021;45.640;11.302;2023-01-30T15:10:23;98574.78;;;5.18;100.00
40315;BME280;26021;45.640;11.302;2023-01-30T15:30:19;98565.09;;;4.81;100.00
40315;BME280;26021;45.640;11.302;2023-01-30T15:32:46;98552.78;;;4.62;100.00
40315;BME280;26021;45.640;11.302;2023-01-30T15:37:48;98561.16;;;4.85;100.00
40315;BME280;26021;45.640;11.302;2023-01-30T15:42:46;98558.81;;;4.45;100.00
40315;BME280;26021;45.640;11.302;2023-01-30T15:45:20;98574.19;;;4.32;100.00